createdAt,value
2022-09-28T00:01:16.227Z,99681.81
2022-09-28T00:03:44.487Z,99678.44
2022-09-28T00:06:14.726Z,99678.69
2022-09-28T00:08:41.904Z,99683.13
2022-09-28T00:11:12.567Z,99686.88
2022-09-28T00:13:40.599Z,99693.88
2022-09-28T00:16:11.017Z,99697.59
2022-09-28T00:18:38.199Z,99694.22
2022-09-28T00:21:09.099Z,99703.25
2022-09-28T00:23:57.291Z,99702.53
2022-09-28T00:26:24.643Z,99700.09
2022-09-28T00:28:55.868Z,99705.66
2022-09-28T00:31:23.583Z,99715.44
2022-09-28T00:33:52.016Z,99710.97
2022-09-28T00:36:19.648Z,99717.59
2022-09-28T00:38:46.732Z,99715.75
2022-09-28T00:41:14.434Z,99718.41
2022-09-28T00:43:41.720Z,99717.69
2022-09-28T00:46:35.888Z,99713.47
2022-09-28T00:49:09.560Z,99710.94
2022-09-28T00:51:38.995Z,99707.56
2022-09-28T00:54:09.608Z,99712.03
2022-09-28T00:56:40.620Z,99712.97
2022-09-28T00:59:09.168Z,99712.38
2022-09-28T01:01:36.987Z,99726.59
2022-09-28T01:04:05.150Z,99715.38
2022-09-28T01:06:35.032Z,99730.41
2022-09-28T01:09:07.717Z,99731.41
2022-09-28T01:11:38.026Z,99729.84
2022-09-28T01:14:08.927Z,99730.66
2022-09-28T01:17:00.328Z,99732.59
2022-09-28T01:19:45.716Z,99738.09
2022-09-28T01:22:36.312Z,99732.81
2022-09-28T01:25:25.313Z,99733.88
2022-09-28T01:28:14.592Z,99731.38
2022-09-28T01:30:51.622Z,99742.69
2022-09-28T01:33:27.171Z,99740.03
2022-09-28T01:36:00.067Z,99744.63
2022-09-28T01:38:36.340Z,99743.13
2022-09-28T01:41:04.826Z,99747.50
2022-09-28T01:43:36.850Z,99741.47
2022-09-28T01:46:16.743Z,99745.78
2022-09-28T01:48:46.621Z,99744.94
2022-09-28T01:51:26.199Z,99746.00
2022-09-28T01:53:57.827Z,99744.13
2022-09-28T01:56:47.794Z,99747.72
2022-09-28T01:59:22.751Z,99752.28
2022-09-28T02:01:57.799Z,99754.09
2022-09-28T02:04:36.414Z,99754.94
2022-09-28T02:07:10.612Z,99755.88
2022-09-28T02:09:46.236Z,99756.03
2022-09-28T02:12:25.009Z,99753.47
2022-09-28T02:14:59.366Z,99756.13
2022-09-28T02:17:26.238Z,99749.03
2022-09-28T02:19:53.350Z,99751.66
2022-09-28T02:22:28.895Z,99751.66
2022-09-28T02:24:58.575Z,99754.44
2022-09-28T02:27:35.779Z,99761.53
2022-09-28T02:30:05.378Z,99760.81
2022-09-28T02:32:35.532Z,99763.56
2022-09-28T02:35:02.422Z,99759.25
2022-09-28T02:37:32.539Z,99762.84
2022-09-28T02:39:59.478Z,99759.25
2022-09-28T02:42:47.620Z,99759.56
2022-09-28T02:45:52.889Z,99768.34
2022-09-28T02:48:42.660Z,99762.22
2022-09-28T02:51:32.190Z,99760.63
2022-09-28T02:54:36.550Z,99758.00
2022-09-28T02:57:30.926Z,99758.84
2022-09-28T03:00:09.443Z,99758.00
2022-09-28T03:03:00.187Z,99761.63
2022-09-28T03:06:05.506Z,99763.47
2022-09-28T03:08:45.317Z,99770.47
2022-09-28T03:11:29.071Z,99756.50
2022-09-28T03:13:56.813Z,99764.53
2022-09-28T03:16:23.811Z,99769.97
2022-09-28T03:18:50.805Z,99767.31
2022-09-28T03:21:17.694Z,99770.91
2022-09-28T03:23:44.573Z,99772.84
2022-09-28T03:26:12.896Z,99770.31
2022-09-28T03:28:40.690Z,99766.09
2022-09-28T03:31:07.724Z,99761.75
2022-09-28T03:33:34.955Z,99764.25
2022-09-28T03:36:02.030Z,99769.69
2022-09-28T03:38:29.029Z,99770.63
2022-09-28T03:41:00.513Z,99774.03
2022-09-28T03:43:29.982Z,99779.44
2022-09-28T03:45:59.195Z,99780.28
2022-09-28T03:48:32.692Z,99777.75
2022-09-28T03:51:02.765Z,99789.16
2022-09-28T03:53:32.657Z,99782.19
2022-09-28T03:56:04.765Z,99788.34
2022-09-28T03:58:31.883Z,99785.78
2022-09-28T04:01:06.485Z,99789.28
2022-09-28T04:03:33.477Z,99790.13
2022-09-28T04:06:00.767Z,99791.09
2022-09-28T04:08:28.067Z,99791.22
2022-09-28T04:10:59.429Z,99791.31
2022-09-28T04:13:27.172Z,99793.00
2022-09-28T04:15:56.043Z,99778.78
2022-09-28T04:18:23.996Z,99782.41
2022-09-28T04:21:00.969Z,99772.91
2022-09-28T04:23:28.475Z,99779.88
2022-09-28T04:25:55.339Z,99780.72
2022-09-28T04:28:40.573Z,99778.19
2022-09-28T04:31:19.001Z,99768.69
2022-09-28T04:33:46.154Z,99772.28
2022-09-28T04:36:13.162Z,99777.56
2022-09-28T04:38:52.847Z,99778.50
2022-09-28T04:41:22.695Z,99774.19
2022-09-28T04:43:50.730Z,99779.47
2022-09-28T04:46:17.962Z,99783.94
2022-09-28T04:48:45.441Z,99785.63
2022-09-28T04:51:12.297Z,99782.22
2022-09-28T04:53:39.166Z,99781.41
2022-09-28T04:56:08.888Z,99785.84
2022-09-28T04:58:36.627Z,99781.41
2022-09-28T05:01:07.261Z,99779.69
2022-09-28T05:03:34.682Z,99779.69
2022-09-28T05:06:01.849Z,99772.69
2022-09-28T05:08:29.514Z,99779.81
2022-09-28T05:11:10.310Z,99780.78
2022-09-28T05:13:42.530Z,99778.25
2022-09-28T05:16:10.529Z,99757.50
2022-09-28T05:18:37.673Z,99763.31
2022-09-28T05:21:09.240Z,99771.25
2022-09-28T05:23:36.081Z,99768.38
2022-09-28T05:26:03.160Z,99768.25
2022-09-28T05:28:32.411Z,99772.63
2022-09-28T05:31:04.287Z,99762.97
2022-09-28T05:33:32.731Z,99767.31
2022-09-28T05:36:02.087Z,99765.75
2022-09-28T05:38:30.117Z,99756.81
2022-09-28T05:40:58.079Z,99764.75
2022-09-28T05:43:25.177Z,99765.63
2022-09-28T05:45:55.703Z,99769.13
2022-09-28T05:48:23.423Z,99758.75
2022-09-28T05:50:53.519Z,99752.50
2022-09-28T05:53:21.176Z,99756.81
2022-09-28T05:55:48.426Z,99755.16
2022-09-28T05:58:15.377Z,99756.22
2022-09-28T06:00:42.512Z,99752.50
2022-09-28T06:03:13.580Z,99757.06
2022-09-28T06:05:40.749Z,99760.53
2022-09-28T06:08:10.633Z,99761.53
2022-09-28T06:10:37.953Z,99767.66
2022-09-28T06:13:05.014Z,99765.97
2022-09-28T06:15:33.923Z,99763.31
2022-09-28T06:18:02.807Z,99759.72
2022-09-28T06:20:33.330Z,99772.09
2022-09-28T06:23:00.224Z,99761.53
2022-09-28T06:25:30.331Z,99764.38
2022-09-28T06:28:09.914Z,99774.00
2022-09-28T06:30:38.852Z,99761.00
2022-09-28T06:33:08.127Z,99763.53
2022-09-28T06:35:35.442Z,99765.22
2022-09-28T06:38:02.893Z,99770.53
2022-09-28T06:40:29.972Z,99775.81
2022-09-28T06:43:01.794Z,99780.25
2022-09-28T06:45:30.266Z,99775.81
2022-09-28T06:48:01.300Z,99785.44
2022-09-28T06:50:32.601Z,99771.25
2022-09-28T06:53:01.107Z,99771.25
2022-09-28T06:55:28.828Z,99783.63
2022-09-28T06:58:07.243Z,99787.13
2022-09-28T07:00:36.856Z,99782.78
2022-09-28T07:03:06.476Z,99779.41
2022-09-28T07:05:37.135Z,99775.91
2022-09-28T07:08:04.869Z,99781.22
2022-09-28T07:10:32.535Z,99783.00
2022-09-28T07:13:05.149Z,99778.69
2022-09-28T07:15:32.843Z,99776.88
2022-09-28T07:18:03.576Z,99782.19
2022-09-28T07:20:36.343Z,99787.47
2022-09-28T07:23:18.332Z,99785.91
2022-09-28T07:25:48.173Z,99779.97
2022-09-28T07:28:16.006Z,99780.59
2022-09-28T07:30:45.073Z,99786.72
2022-09-28T07:33:14.806Z,99778.69
2022-09-28T07:35:43.287Z,99775.06
2022-09-28T07:38:11.316Z,99778.69
2022-09-28T07:40:58.641Z,99775.31
2022-09-28T07:43:25.815Z,99775.53
2022-09-28T07:45:57.207Z,99778.91
2022-09-28T07:48:24.270Z,99786.72
2022-09-28T07:50:52.913Z,99781.53
2022-09-28T07:53:21.114Z,99784.91
2022-09-28T07:55:55.958Z,99789.28
2022-09-28T07:58:23.447Z,99783.97
2022-09-28T08:00:51.209Z,99786.41
2022-09-28T08:03:20.111Z,99784.69
2022-09-28T08:05:47.693Z,99786.50
2022-09-28T08:08:15.640Z,99789.28
2022-09-28T08:10:46.889Z,99784.69
2022-09-28T08:13:15.477Z,99793.50
2022-09-28T08:15:42.921Z,99788.06
2022-09-28T08:18:11.100Z,99783.75
2022-09-28T08:20:56.440Z,99787.34
2022-09-28T08:23:24.764Z,99785.44
2022-09-28T08:25:55.815Z,99781.84
2022-09-28T08:28:24.494Z,99787.13
2022-09-28T08:30:52.081Z,99800.25
2022-09-28T08:33:23.118Z,99786.91
2022-09-28T08:36:01.328Z,99786.06
2022-09-28T08:38:30.144Z,99783.41
2022-09-28T08:41:21.758Z,99782.47
2022-09-28T08:43:56.314Z,99772.69
2022-09-28T08:46:27.273Z,99772.69
2022-09-28T08:49:23.665Z,99785.84
2022-09-28T08:52:00.416Z,99785.13
2022-09-28T08:54:45.415Z,99791.22
2022-09-28T08:57:18.505Z,99787.75
2022-09-28T09:00:00.490Z,99781.63
2022-09-28T09:02:40.017Z,99779.69
2022-09-28T09:05:15.113Z,99775.34
2022-09-28T09:08:01.016Z,99785.00
2022-09-28T09:10:39.276Z,99771.03
2022-09-28T09:13:34.123Z,99771.25
2022-09-28T09:16:19.461Z,99790.50
2022-09-28T09:18:59.407Z,99781.00
2022-09-28T09:21:42.018Z,99776.41
2022-09-28T09:24:32.205Z,99772.19
2022-09-28T09:27:14.717Z,99767.53
2022-09-28T09:29:51.977Z,99771.88
2022-09-28T09:33:18.378Z,99769.13
2022-09-28T09:36:09.621Z,99764.66
2022-09-28T09:38:58.799Z,99759.25
2022-09-28T09:41:46.040Z,99757.47
2022-09-28T09:44:34.400Z,99765.53
2022-09-28T09:47:12.063Z,99770.69
2022-09-28T09:50:20.785Z,99760.97
2022-09-28T09:52:49.880Z,99769.75
2022-09-28T09:55:37.157Z,99774.06
2022-09-28T09:58:38.858Z,99766.97
2022-09-28T10:01:14.342Z,99764.31
2022-09-28T10:03:46.477Z,99765.91
2022-09-28T10:06:17.718Z,99766.13
2022-09-28T10:08:49.232Z,99756.59
2022-09-28T10:11:22.288Z,99766.25
2022-09-28T10:13:49.674Z,99764.66
2022-09-28T10:16:19.130Z,99758.75
2022-09-28T10:18:46.561Z,99762.13
2022-09-28T10:21:20.956Z,99765.53
2022-09-28T10:23:55.455Z,99764.75
2022-09-28T10:26:37.953Z,99768.38
2022-09-28T10:29:16.362Z,99766.81
2022-09-28T10:31:54.502Z,99765.00
2022-09-28T10:34:31.225Z,99768.59
2022-09-28T10:37:01.698Z,99758.13
2022-09-28T10:39:40.335Z,99757.06
2022-09-28T10:42:13.937Z,99751.53
2022-09-28T10:45:01.397Z,99743.72
2022-09-28T10:47:33.320Z,99754.44
2022-09-28T10:50:01.177Z,99748.16
2022-09-28T10:52:41.925Z,99740.94
2022-09-28T10:55:27.248Z,99752.50
2022-09-28T10:57:54.951Z,99749.88
2022-09-28T11:00:41.133Z,99752.50
2022-09-28T11:03:23.329Z,99753.44
2022-09-28T11:06:01.048Z,99751.53
2022-09-28T11:08:37.673Z,99749.00
2022-09-28T11:11:09.327Z,99755.16
2022-09-28T11:13:50.302Z,99748.16
2022-09-28T11:16:26.995Z,99754.19
2022-09-28T11:18:54.344Z,99750.59
2022-09-28T11:21:27.680Z,99747.00
2022-09-28T11:24:14.442Z,99749.66
2022-09-28T11:26:53.178Z,99747.94
2022-09-28T11:29:22.548Z,99751.31
2022-09-28T11:31:49.982Z,99746.03
2022-09-28T11:34:41.507Z,99753.53
2022-09-28T11:37:27.877Z,99745.81
2022-09-28T11:40:03.885Z,99753.53
2022-09-28T11:42:58.657Z,99742.22
2022-09-28T11:45:44.010Z,99754.38
2022-09-28T11:48:16.542Z,99755.94
2022-09-28T11:50:53.818Z,99749.69
2022-09-28T11:53:48.007Z,99735.16
2022-09-28T11:56:36.255Z,99732.91
2022-09-28T11:59:18.538Z,99737.25
2022-09-28T12:02:11.331Z,99738.28
2022-09-28T12:04:38.465Z,99742.78
2022-09-28T12:07:38.241Z,99732.91
2022-09-28T12:10:17.641Z,99735.31
2022-09-28T12:12:48.575Z,99739.44
2022-09-28T12:16:23.054Z,99731.50
2022-09-28T12:18:44.960Z,99725.25
2022-09-28T12:21:17.929Z,99738.06
2022-09-28T12:23:47.157Z,99730.94
2022-09-28T12:26:37.278Z,99721.41
2022-09-28T12:29:23.976Z,99729.47
2022-09-28T12:32:00.163Z,99731.28
2022-09-28T12:34:27.377Z,99731.19
2022-09-28T12:37:11.571Z,99726.84
2022-09-28T12:39:57.110Z,99736.34
2022-09-28T12:42:56.316Z,99731.78
2022-09-28T12:46:07.036Z,99727.19
2022-09-28T12:49:36.764Z,99736.97
2022-09-28T12:51:54.300Z,99720.59
2022-09-28T12:54:31.912Z,99730.22
2022-09-28T12:57:29.983Z,99732.75
2022-09-28T13:00:06.157Z,99723.97
2022-09-28T13:02:45.786Z,99726.72
2022-09-28T13:06:00.617Z,99728.53
2022-09-28T13:08:53.550Z,99727.56
2022-09-28T13:11:41.898Z,99723.25
2022-09-28T13:14:30.246Z,99727.69
2022-09-28T13:17:18.739Z,99726.00
2022-09-28T13:19:56.337Z,99733.94
2022-09-28T13:22:58.380Z,99726.97
2022-09-28T13:25:29.597Z,99729.63
2022-09-28T13:28:01.479Z,99730.66
2022-09-28T13:30:29.353Z,99731.41
2022-09-28T13:32:58.412Z,99729.84
2022-09-28T13:35:26.152Z,99738.50
2022-09-28T13:38:18.155Z,99736.81
2022-09-28T13:41:04.007Z,99735.94
2022-09-28T13:44:11.746Z,99738.50
2022-09-28T13:47:00.663Z,99743.09
2022-09-28T13:49:45.770Z,99743.09
2022-09-28T13:52:30.763Z,99735.13
2022-09-28T13:55:19.041Z,99733.00
2022-09-28T13:57:49.164Z,99735.13
2022-09-28T14:00:35.046Z,99742.94
2022-09-28T14:03:05.123Z,99741.34
2022-09-28T14:05:41.954Z,99742.19
2022-09-28T14:08:08.987Z,99742.09
2022-09-28T14:10:53.179Z,99732.56
2022-09-28T14:13:42.102Z,99735.31
2022-09-28T14:16:24.310Z,99734.16
2022-09-28T14:18:56.942Z,99735.19
2022-09-28T14:21:45.356Z,99737.84
2022-09-28T14:24:23.723Z,99740.63
2022-09-28T14:27:03.556Z,99738.91
2022-09-28T14:29:34.209Z,99747.59
2022-09-28T14:32:25.787Z,99741.25
2022-09-28T14:35:04.939Z,99740.63
2022-09-28T14:37:58.135Z,99744.13
2022-09-28T14:40:49.777Z,99737.25
2022-09-28T14:43:36.865Z,99746.13
2022-09-28T14:46:15.749Z,99758.53
2022-09-28T14:48:50.640Z,99753.84
2022-09-28T14:51:44.376Z,99749.28
2022-09-28T14:54:11.414Z,99744.00
2022-09-28T14:56:59.246Z,99751.03
2022-09-28T14:59:34.863Z,99745.91
2022-09-28T15:02:11.087Z,99748.66
2022-09-28T15:04:43.769Z,99742.53
2022-09-28T15:07:30.788Z,99740.84
2022-09-28T15:09:58.815Z,99741.47
2022-09-28T15:12:29.125Z,99737.66
2022-09-28T15:14:56.172Z,99744.66
2022-09-28T15:17:45.674Z,99733.41
2022-09-28T15:20:26.898Z,99744.00
2022-09-28T15:22:57.646Z,99742.28
2022-09-28T15:25:32.735Z,99751.03
2022-09-28T15:28:18.267Z,99748.25
2022-09-28T15:30:46.022Z,99753.44
2022-09-28T15:33:52.250Z,99755.25
2022-09-28T15:36:26.709Z,99765.63
2022-09-28T15:39:17.231Z,99759.47
2022-09-28T15:41:46.431Z,99776.19
2022-09-28T15:44:13.582Z,99777.16
2022-09-28T15:46:44.723Z,99774.38
2022-09-28T15:49:24.719Z,99777.03
2022-09-28T15:51:55.747Z,99781.38
2022-09-28T15:54:29.394Z,99781.50
2022-09-28T15:57:02.926Z,99784.88
2022-09-28T15:59:35.099Z,99780.16
2022-09-28T16:02:10.292Z,99779.00
2022-09-28T16:04:50.875Z,99778.06
2022-09-28T16:07:21.551Z,99776.97
2022-09-28T16:09:58.813Z,99765.31
2022-09-28T16:12:49.081Z,99768.69
2022-09-28T16:15:31.311Z,99772.06
2022-09-28T16:18:04.586Z,99776.28
2022-09-28T16:20:36.701Z,99772.53
2022-09-28T16:23:18.261Z,99781.00
2022-09-28T16:26:12.066Z,99786.47
2022-09-28T16:28:39.344Z,99782.50
2022-09-28T16:31:24.873Z,99787.31
2022-09-28T16:34:01.789Z,99775.31
2022-09-28T16:36:39.889Z,99778.22
2022-09-28T16:39:06.939Z,99775.06
2022-09-28T16:41:34.068Z,99781.69
2022-09-28T16:44:03.308Z,99781.38
2022-09-28T16:46:39.724Z,99790.41
2022-09-28T16:49:07.786Z,99776.91
2022-09-28T16:51:35.009Z,99797.56
2022-09-28T16:54:36.821Z,99800.72
2022-09-28T16:57:06.629Z,99807.47
2022-09-28T16:59:34.315Z,99815.91
2022-09-28T17:02:01.498Z,99814.72
2022-09-28T17:04:30.172Z,99827.47
2022-09-28T17:06:58.712Z,99813.72
2022-09-28T17:09:26.358Z,99817.09
2022-09-28T17:11:58.246Z,99813.88
2022-09-28T17:14:25.547Z,99816.38
2022-09-28T17:17:13.817Z,99817.09
2022-09-28T17:19:41.436Z,99819.28
2022-09-28T17:22:11.775Z,99818.91
2022-09-28T17:24:38.784Z,99820.47
2022-09-28T17:27:07.259Z,99824.56
2022-09-28T17:29:34.261Z,99831.31
2022-09-28T17:32:01.459Z,99826.72
2022-09-28T17:34:29.147Z,99827.47
2022-09-28T17:36:57.315Z,99816.84
2022-09-28T17:39:25.505Z,99821.91
2022-09-28T17:41:52.748Z,99816.44
2022-09-28T17:44:20.261Z,99818.72
2022-09-28T17:46:49.304Z,99823.09
2022-09-28T17:49:17.444Z,99833.47
2022-09-28T17:51:44.613Z,99835.13
2022-09-28T17:54:13.446Z,99842.16
2022-09-28T17:56:40.778Z,99845.50
2022-09-28T17:59:13.160Z,99846.38
2022-09-28T18:01:43.493Z,99855.50
2022-09-28T18:04:19.179Z,99850.09
2022-09-28T18:06:56.151Z,99848.91
2022-09-28T18:09:29.014Z,99849.25
2022-09-28T18:12:01.922Z,99861.13
2022-09-28T18:14:30.912Z,99857.13
2022-09-28T18:16:58.690Z,99860.03
2022-09-28T18:19:31.708Z,99865.47
2022-09-28T18:21:59.746Z,99868.47
2022-09-28T18:24:27.396Z,99857.88
2022-09-28T18:26:55.043Z,99865.13
2022-09-28T18:29:22.556Z,99869.34
2022-09-28T18:31:54.279Z,99869.34
2022-09-28T18:34:24.785Z,99860.50
2022-09-28T18:36:52.657Z,99862.22
2022-09-28T18:39:20.597Z,99870.19
2022-09-28T18:41:48.254Z,99866.69
2022-09-28T18:44:16.025Z,99862.94
2022-09-28T18:46:44.383Z,99865.47
2022-09-28T18:49:11.763Z,99866.91
2022-09-28T18:51:39.314Z,99870.19
2022-09-28T18:54:08.343Z,99868.94
2022-09-28T18:56:38.645Z,99871.59
2022-09-28T18:59:11.894Z,99871.38
2022-09-28T19:01:40.986Z,99870.75
2022-09-28T19:04:10.909Z,99871.44
2022-09-28T19:06:45.505Z,99874.63
2022-09-28T19:09:13.882Z,99867.25
2022-09-28T19:11:41.675Z,99872.56
2022-09-28T19:14:12.585Z,99866.16
2022-09-28T19:16:42.713Z,99878.25
2022-09-28T19:19:13.429Z,99871.69
2022-09-28T19:21:44.086Z,99877.00
2022-09-28T19:24:18.128Z,99886.44
2022-09-28T19:26:46.829Z,99889.94
2022-09-28T19:29:17.146Z,99890.41
2022-09-28T19:31:45.051Z,99889.31
2022-09-28T19:34:14.433Z,99885.56
2022-09-28T19:36:42.596Z,99891.72
2022-09-28T19:39:14.551Z,99898.31
2022-09-28T19:41:46.294Z,99894.69
2022-09-28T19:44:16.033Z,99905.09
2022-09-28T19:46:43.736Z,99909.44
2022-09-28T19:49:19.909Z,99911.81
2022-09-28T19:52:11.598Z,99900.09
2022-09-28T19:54:40.967Z,99911.78
2022-09-28T19:57:10.046Z,99908.25
2022-09-28T19:59:38.579Z,99902.56
2022-09-28T20:02:08.826Z,99911.72
2022-09-28T20:04:41.030Z,99913.78
2022-09-28T20:07:09.943Z,99913.66
2022-09-28T20:09:37.369Z,99910.25
2022-09-28T20:12:05.028Z,99911.97
2022-09-28T20:14:36.562Z,99912.91
2022-09-28T20:17:07.945Z,99917.44
2022-09-28T20:19:38.210Z,99907.88
2022-09-28T20:22:05.612Z,99920.19
2022-09-28T20:24:35.971Z,99922.00
2022-09-28T20:27:03.543Z,99914.03
2022-09-28T20:29:32.749Z,99929.16
2022-09-28T20:32:00.903Z,99916.81
2022-09-28T20:34:29.153Z,99919.47
2022-09-28T20:36:56.655Z,99926.63
2022-09-28T20:39:23.946Z,99932.06
2022-09-28T20:41:51.555Z,99927.72
2022-09-28T20:44:20.291Z,99929.91
2022-09-28T20:46:53.229Z,99937.19
2022-09-28T20:49:21.452Z,99926.66
2022-09-28T20:51:49.113Z,99925.84
2022-09-28T20:54:20.640Z,99932.09
2022-09-28T20:56:53.649Z,99934.06
2022-09-28T20:59:23.748Z,99933.81
2022-09-28T21:01:52.087Z,99931.41
2022-09-28T21:04:20.518Z,99936.81
2022-09-28T21:06:48.753Z,99939.25
2022-09-28T21:09:16.906Z,99939.91
2022-09-28T21:11:46.510Z,99937.72
2022-09-28T21:14:14.583Z,99934.59
2022-09-28T21:16:42.312Z,99938.47
2022-09-28T21:19:09.555Z,99942.34
2022-09-28T21:21:36.754Z,99947.19
2022-09-28T21:24:04.318Z,99949.38
2022-09-28T21:26:32.604Z,99961.94
2022-09-28T21:29:01.816Z,99958.03
2022-09-28T21:31:38.587Z,99965.28
2022-09-28T21:34:06.444Z,99969.16
2022-09-28T21:36:34.579Z,99965.28
2022-09-28T21:39:01.920Z,99965.28
2022-09-28T21:41:29.541Z,99976.28
2022-09-28T21:43:57.253Z,99974.84
2022-09-28T21:46:25.134Z,99989.91
2022-09-28T21:48:56.637Z,99987.50
2022-09-28T21:51:23.535Z,99994.84
2022-09-28T21:53:50.533Z,99989.91
2022-09-28T21:56:18.049Z,99993.28
2022-09-28T21:58:45.027Z,99996.06
2022-09-28T22:01:14.946Z,100001.47
2022-09-28T22:03:44.355Z,99999.19
2022-09-28T22:06:11.897Z,100008.09
2022-09-28T22:08:39.683Z,100006.78
2022-09-28T22:11:12.455Z,100006.03
2022-09-28T22:13:45.166Z,100005.69
2022-09-28T22:16:13.881Z,100013.66
2022-09-28T22:18:41.574Z,100017.25
2022-09-28T22:21:18.122Z,100004.56
2022-09-28T22:23:45.708Z,100010.59
2022-09-28T22:26:14.879Z,100014.47
2022-09-28T22:28:47.371Z,100021.66
2022-09-28T22:31:15.827Z,100020.00
2022-09-28T22:33:42.857Z,100027.25
2022-09-28T22:36:10.781Z,100013.56
2022-09-28T22:38:38.358Z,100027.47
2022-09-28T22:41:05.254Z,100025.75
2022-09-28T22:43:33.672Z,100033.00
2022-09-28T22:46:05.620Z,100032.59
2022-09-28T22:48:33.028Z,100032.59
2022-09-28T22:51:00.187Z,100030.28
2022-09-28T22:53:28.663Z,100040.19
2022-09-28T22:56:01.029Z,100044.75
2022-09-28T22:58:28.003Z,100048.13
2022-09-28T23:00:58.165Z,100040.63
2022-09-28T23:03:25.061Z,100050.38
2022-09-28T23:05:56.191Z,100052.19
2022-09-28T23:08:24.261Z,100047.09
2022-09-28T23:10:52.035Z,100056.88
2022-09-28T23:13:19.587Z,100049.63
2022-09-28T23:16:05.013Z,100053.34
2022-09-28T23:18:35.487Z,100056.22
2022-09-28T23:21:04.994Z,100049.13
2022-09-28T23:23:32.450Z,100057.44
2022-09-28T23:25:59.786Z,100061.75
2022-09-28T23:28:27.211Z,100058.38
2022-09-28T23:30:54.699Z,100065.59
2022-09-28T23:33:22.168Z,100064.75
2022-09-28T23:35:49.656Z,100071.13
2022-09-28T23:38:18.457Z,100077.28
2022-09-28T23:40:46.965Z,100078.34
2022-09-28T23:43:14.687Z,100081.97
2022-09-28T23:45:44.355Z,100085.81
2022-09-28T23:48:13.109Z,100083.88
2022-09-28T23:50:39.887Z,100083.88
2022-09-28T23:53:06.920Z,100084.09
2022-09-28T23:55:33.868Z,100092.91
2022-09-28T23:58:00.743Z,100094.91
